Time,TemperatureF,DewpointF,PressureIn,WindDirection,WindDirectionDegrees,WindSpeedMPH,WindSpeedGustMPH,Humidity,HourlyPrecipIn,Conditions,Clouds,dailyrainin,SoftwareType,DateUTC
2013-11-15 00:01:00,41.3,30.0,29.82,SSW,204,5.0,-999.0,64,-99.99,,,0.00,weatherlink.com 1.10,2013-11-15 06:01:00,
2013-11-15 00:16:00,41.6,30.0,29.82,South,179,7.0,-999.0,64,-99.99,,,0.00,weatherlink.com 1.10,2013-11-15 06:16:00,
2013-11-15 00:31:00,41.6,30.0,29.81,SSW,207,5.0,-999.0,64,-99.99,,,0.00,weatherlink.com 1.10,2013-11-15 06:31:00,
2013-11-15 00:46:00,41.2,30.0,29.81,SSW,198,4.0,-999.0,65,-99.99,,,0.00,weatherlink.com 1.10,2013-11-15 06:46:00,
2013-11-15 01:01:00,40.9,30.0,29.81,South,189,4.0,-999.0,65,-99.99,,,0.00,weatherlink.com 1.10,2013-11-15 07:01:00,
2013-11-15 01:16:00,40.3,30.0,29.82,South,173,5.0,-999.0,66,-99.99,,,0.00,weatherlink.com 1.10,2013-11-15 07:16:00,
2013-11-15 01:31:00,40.3,30.0,29.82,SSW,198,4.0,-999.0,66,-99.99,,,0.00,weatherlink.com 1.10,2013-11-15 07:31:00,
2013-11-15 01:46:00,40.2,30.0,29.83,SSW,199,6.0,-999.0,67,-99.99,,,0.00,weatherlink.com 1.10,2013-11-15 07:46:00,
2013-11-15 02:01:00,40.3,30.0,29.83,SSW,203,12.0,-999.0,66,-99.99,,,0.00,weatherlink.com 1.10,2013-11-15 08:01:00,
2013-11-15 02:16:00,40.3,29.0,29.83,SSW,205,12.0,-999.0,65,-99.99,,,0.00,weatherlink.com 1.10,2013-11-15 08:16:00,
2013-11-15 02:31:00,40.2,30.0,29.83,South,189,6.0,-999.0,66,-99.99,,,0.00,weatherlink.com 1.10,2013-11-15 08:31:00,
2013-11-15 02:46:00,39.9,29.0,29.83,SSW,203,5.0,-999.0,66,-99.99,,,0.00,weatherlink.com 1.10,2013-11-15 08:46:00,
2013-11-15 03:01:00,39.8,30.0,29.82,SSW,211,11.0,-999.0,67,-99.99,,,0.00,weatherlink.com 1.10,2013-11-15 09:01:00,
2013-11-15 03:16:00,39.6,29.0,29.82,SSW,200,5.0,-999.0,67,-99.99,,,0.00,weatherlink.com 1.10,2013-11-15 09:16:00,
2013-11-15 03:31:00,39.5,29.0,29.82,South,186,4.0,-999.0,67,-99.99,,,0.00,weatherlink.com 1.10,2013-11-15 09:31:00,
2013-11-15 03:46:00,39.3,29.0,29.83,SSW,192,5.0,-999.0,68,-99.99,,,0.00,weatherlink.com 1.10,2013-11-15 09:46:00,
2013-11-15 04:01:00,38.9,29.0,29.83,SSW,200,4.0,-999.0,69,-99.99,,,0.00,weatherlink.com 1.10,2013-11-15 10:01:00,
2013-11-15 04:16:00,38.5,30.0,29.83,SSW,199,4.0,-999.0,71,-99.99,,,0.00,weatherlink.com 1.10,2013-11-15 10:16:00,
2013-11-15 04:31:00,38.5,30.0,29.83,SSW,205,5.0,-999.0,71,-99.99,,,0.00,weatherlink.com 1.10,2013-11-15 10:31:00,
2013-11-15 04:46:00,38.3,30.0,29.83,SSW,200,4.0,-999.0,72,-99.99,,,0.00,weatherlink.com 1.10,2013-11-15 10:46:00,
2013-11-15 05:01:00,37.9,30.0,29.83,SSW,194,4.0,-999.0,73,-99.99,,,0.00,weatherlink.com 1.10,2013-11-15 11:01:00,
2013-11-15 05:16:00,37.6,30.0,29.83,SSW,200,3.0,-999.0,74,-99.99,,,0.00,weatherlink.com 1.10,2013-11-15 11:16:00,
2013-11-15 05:31:00,37.2,30.0,29.84,SSW,202,6.0,-999.0,75,-99.99,,,0.00,weatherlink.com 1.10,2013-11-15 11:31:00,
2013-11-15 05:46:00,36.9,30.0,29.84,SSW,206,4.0,-999.0,76,-99.99,,,0.00,weatherlink.com 1.10,2013-11-15 11:46:00,
2013-11-15 06:01:00,37.0,30.0,29.84,South,180,4.0,-999.0,76,-99.99,,,0.00,weatherlink.com 1.10,2013-11-15 12:01:00,
2013-11-15 06:16:00,36.8,30.0,29.84,South,178,2.0,-999.0,76,-99.99,,,0.00,weatherlink.com 1.10,2013-11-15 12:16:00,
2013-11-15 06:31:00,36.5,30.0,29.85,SSW,193,5.0,-999.0,77,-99.99,,,0.00,weatherlink.com 1.10,2013-11-15 12:31:00,
2013-11-15 06:46:00,36.0,30.0,29.85,SSW,202,4.0,-999.0,78,-99.99,,,0.00,weatherlink.com 1.10,2013-11-15 12:46:00,
2013-11-15 07:01:00,35.9,30.0,29.86,SSW,193,4.0,-999.0,79,-99.99,,,0.00,weatherlink.com 1.10,2013-11-15 13:01:00,
2013-11-15 07:16:00,35.9,30.0,29.86,South,187,6.0,-999.0,79,-99.99,,,0.00,weatherlink.com 1.10,2013-11-15 13:16:00,
2013-11-15 07:31:00,36.0,30.0,29.86,SSW,199,5.0,-999.0,79,-99.99,,,0.00,weatherlink.com 1.10,2013-11-15 13:31:00,
2013-11-15 07:46:00,36.5,31.0,29.87,SSW,194,3.0,-999.0,79,-99.99,,,0.00,weatherlink.com 1.10,2013-11-15 13:46:00,
2013-11-15 08:01:00,37.0,30.0,29.87,South,180,2.0,-999.0,77,-99.99,,,0.00,weatherlink.com 1.10,2013-11-15 14:01:00,
2013-11-15 08:16:00,37.8,31.0,29.87,SSE,168,4.0,-999.0,76,-99.99,,,0.00,weatherlink.com 1.10,2013-11-15 14:16:00,
2013-11-15 08:31:00,38.9,31.0,29.88,South,183,3.0,-999.0,73,-99.99,,,0.00,weatherlink.com 1.10,2013-11-15 14:31:00,
2013-11-15 08:46:00,40.1,31.0,29.88,SSW,200,10.0,-999.0,70,-99.99,,,0.00,weatherlink.com 1.10,2013-11-15 14:46:00,
2013-11-15 09:01:00,40.8,31.0,29.88,SSW,205,10.0,-999.0,68,-99.99,,,0.00,weatherlink.com 1.10,2013-11-15 15:01:00,
2013-11-15 09:16:00,41.3,31.0,29.88,SSW,209,11.0,-999.0,67,-99.99,,,0.00,weatherlink.com 1.10,2013-11-15 15:16:00,
2013-11-15 09:31:00,42.2,31.0,29.88,South,181,3.0,-999.0,66,-99.99,,,0.00,weatherlink.com 1.10,2013-11-15 15:31:00,
2013-11-15 09:46:00,43.1,32.0,29.89,SW,221,6.0,-999.0,64,-99.99,,,0.00,weatherlink.com 1.10,2013-11-15 15:46:00,
2013-11-15 10:01:00,43.8,32.0,29.89,SSW,197,4.0,-999.0,64,-99.99,,,0.00,weatherlink.com 1.10,2013-11-15 16:01:00,
2013-11-15 10:16:00,44.6,33.0,29.89,SSW,202,2.0,-999.0,63,-99.99,,,0.00,weatherlink.com 1.10,2013-11-15 16:16:00,
2013-11-15 10:31:00,46.1,33.0,29.88,South,190,7.0,-999.0,61,-99.99,,,0.00,weatherlink.com 1.10,2013-11-15 16:31:00,
2013-11-15 10:46:00,46.1,34.0,29.88,SSW,204,8.0,-999.0,62,-99.99,,,0.00,weatherlink.com 1.10,2013-11-15 16:46:00,
2013-11-15 11:01:00,46.8,34.0,29.88,South,190,5.0,-999.0,62,-99.99,,,0.00,weatherlink.com 1.10,2013-11-15 17:01:00,
2013-11-15 11:16:00,47.3,34.0,29.87,SSW,199,4.0,-999.0,61,-99.99,,,0.00,weatherlink.com 1.10,2013-11-15 17:16:00,
2013-11-15 11:31:00,48.2,34.0,29.87,SSE,161,5.0,-999.0,59,-99.99,,,0.00,weatherlink.com 1.10,2013-11-15 17:31:00,
2013-11-15 11:46:00,48.8,34.0,29.87,South,190,8.0,-999.0,58,-99.99,,,0.00,weatherlink.com 1.10,2013-11-15 17:46:00,
2013-11-15 12:01:00,49.8,35.0,29.86,SSE,165,4.0,-999.0,58,-99.99,,,0.00,weatherlink.com 1.10,2013-11-15 18:01:00,
2013-11-15 12:16:00,50.5,35.0,29.86,SW,217,5.0,-999.0,55,-99.99,,,0.00,weatherlink.com 1.10,2013-11-15 18:16:00,
2013-11-15 12:31:00,50.4,35.0,29.85,SSW,203,12.0,-999.0,57,-99.99,,,0.00,weatherlink.com 1.10,2013-11-15 18:31:00,
2013-11-15 12:46:00,50.8,35.0,29.84,SSW,204,6.0,-999.0,56,-99.99,,,0.00,weatherlink.com 1.10,2013-11-15 18:46:00,
2013-11-15 13:01:00,51.3,36.0,29.84,South,178,6.0,-999.0,56,-99.99,,,0.00,weatherlink.com 1.10,2013-11-15 19:01:00,
2013-11-15 13:16:00,51.4,36.0,29.84,SSW,194,3.0,-999.0,56,-99.99,,,0.00,weatherlink.com 1.10,2013-11-15 19:16:00,
2013-11-15 13:31:00,51.4,36.0,29.84,SSW,194,9.0,-999.0,56,-99.99,,,0.00,weatherlink.com 1.10,2013-11-15 19:31:00,
2013-11-15 13:46:00,51.3,35.0,29.84,SSW,194,7.0,-999.0,55,-99.99,,,0.00,weatherlink.com 1.10,2013-11-15 19:46:00,
2013-11-15 14:01:00,51.9,36.0,29.83,SSW,208,10.0,-999.0,54,-99.99,,,0.00,weatherlink.com 1.10,2013-11-15 20:01:00,
2013-11-15 14:16:00,51.6,36.0,29.83,South,184,7.0,-999.0,55,-99.99,,,0.00,weatherlink.com 1.10,2013-11-15 20:16:00,
2013-11-15 14:31:00,51.3,35.0,29.83,South,188,5.0,-999.0,55,-99.99,,,0.00,weatherlink.com 1.10,2013-11-15 20:31:00,
2013-11-15 14:46:00,51.4,36.0,29.84,SSW,206,8.0,-999.0,55,-99.99,,,0.00,weatherlink.com 1.10,2013-11-15 20:46:00,
2013-11-15 15:01:00,51.6,36.0,29.84,South,190,10.0,-999.0,55,-99.99,,,0.00,weatherlink.com 1.10,2013-11-15 21:01:00,
2013-11-15 15:16:00,51.4,36.0,29.84,South,184,6.0,-999.0,55,-99.99,,,0.00,weatherlink.com 1.10,2013-11-15 21:16:00,
2013-11-15 15:31:00,51.3,35.0,29.84,SSW,192,2.0,-999.0,55,-99.99,,,0.00,weatherlink.com 1.10,2013-11-15 21:31:00,
2013-11-15 15:46:00,50.5,36.0,29.84,SSW,199,5.0,-999.0,57,-99.99,,,0.00,weatherlink.com 1.10,2013-11-15 21:46:00,
2013-11-15 16:01:00,49.5,35.0,29.85,South,190,2.0,-999.0,58,-99.99,,,0.00,weatherlink.com 1.10,2013-11-15 22:01:00,
2013-11-15 16:16:00,48.8,35.0,29.85,South,182,0.0,-999.0,60,-99.99,,,0.00,weatherlink.com 1.10,2013-11-15 22:16:00,
2013-11-15 16:31:00,47.7,35.0,29.84,South,182,0.0,-999.0,62,-99.99,,,0.00,weatherlink.com 1.10,2013-11-15 22:31:00,
2013-11-15 16:46:00,46.8,35.0,29.84,South,181,2.0,-999.0,64,-99.99,,,0.00,weatherlink.com 1.10,2013-11-15 22:46:00,
2013-11-15 17:01:00,46.1,35.0,29.85,South,171,3.0,-999.0,66,-99.99,,,0.00,weatherlink.com 1.10,2013-11-15 23:01:00,
2013-11-15 17:16:00,46.0,36.0,29.85,SSE,163,3.0,-999.0,67,-99.99,,,0.00,weatherlink.com 1.10,2013-11-15 23:16:00,
2013-11-15 17:31:00,45.5,35.0,29.86,SSE,165,3.0,-999.0,67,-99.99,,,0.00,weatherlink.com 1.10,2013-11-15 23:31:00,
2013-11-15 17:46:00,43.2,34.0,29.86,SSE,154,5.0,-999.0,71,-99.99,,,0.00,weatherlink.com 1.10,2013-11-15 23:46:00,
2013-11-15 18:01:00,42.1,34.0,29.86,SE,124,6.0,-999.0,73,-99.99,,,0.00,weatherlink.com 1.10,2013-11-16 00:01:00,
2013-11-15 18:16:00,41.2,34.0,29.86,SE,126,6.0,-999.0,75,-99.99,,,0.00,weatherlink.com 1.10,2013-11-16 00:16:00,
2013-11-15 18:31:00,40.5,34.0,29.86,ESE,111,7.0,-999.0,76,-99.99,,,0.00,weatherlink.com 1.10,2013-11-16 00:31:00,
2013-11-15 18:46:00,39.8,33.0,29.86,SSE,152,5.0,-999.0,78,-99.99,,,0.00,weatherlink.com 1.10,2013-11-16 00:46:00,
2013-11-15 19:01:00,39.8,34.0,29.87,SE,143,4.0,-999.0,79,-99.99,,,0.00,weatherlink.com 1.10,2013-11-16 01:01:00,
2013-11-15 19:16:00,39.5,34.0,29.87,SE,136,6.0,-999.0,80,-99.99,,,0.00,weatherlink.com 1.10,2013-11-16 01:16:00,
2013-11-15 19:31:00,39.3,34.0,29.87,SE,139,5.0,-999.0,81,-99.99,,,0.00,weatherlink.com 1.10,2013-11-16 01:31:00,
2013-11-15 19:46:00,39.2,34.0,29.87,SE,144,6.0,-999.0,82,-99.99,,,0.00,weatherlink.com 1.10,2013-11-16 01:46:00,
2013-11-15 20:01:00,39.6,34.0,29.86,SE,144,3.0,-999.0,80,-99.99,,,0.00,weatherlink.com 1.10,2013-11-16 02:01:00,
2013-11-15 20:16:00,39.5,34.0,29.86,SE,144,5.0,-999.0,80,-99.99,,,0.00,weatherlink.com 1.10,2013-11-16 02:16:00,
2013-11-15 20:31:00,40.1,34.0,29.86,SE,145,2.0,-999.0,79,-99.99,,,0.00,weatherlink.com 1.10,2013-11-16 02:31:00,
2013-11-15 20:46:00,40.8,34.0,29.86,SSE,160,4.0,-999.0,77,-99.99,,,0.00,weatherlink.com 1.10,2013-11-16 02:46:00,
2013-11-15 21:01:00,40.9,34.0,29.85,SSE,153,4.0,-999.0,75,-99.99,,,0.00,weatherlink.com 1.10,2013-11-16 03:01:00,
2013-11-15 21:16:00,41.8,34.0,29.85,SSE,166,6.0,-999.0,73,-99.99,,,0.00,weatherlink.com 1.10,2013-11-16 03:16:00,
2013-11-15 21:31:00,41.9,33.0,29.86,SSE,152,3.0,-999.0,72,-99.99,,,0.00,weatherlink.com 1.10,2013-11-16 03:31:00,
2013-11-15 21:46:00,42.2,33.0,29.86,SSE,157,4.0,-999.0,71,-99.99,,,0.00,weatherlink.com 1.10,2013-11-16 03:46:00,
2013-11-15 22:01:00,41.9,33.0,29.86,SSE,161,3.0,-999.0,71,-99.99,,,0.00,weatherlink.com 1.10,2013-11-16 04:01:00,
2013-11-15 22:16:00,41.5,33.0,29.85,SSE,150,3.0,-999.0,71,-99.99,,,0.00,weatherlink.com 1.10,2013-11-16 04:16:00,
2013-11-15 22:31:00,41.5,33.0,29.85,SSE,167,5.0,-999.0,71,-99.99,,,0.00,weatherlink.com 1.10,2013-11-16 04:31:00,
2013-11-15 22:46:00,41.2,32.0,29.86,SSE,161,4.0,-999.0,71,-99.99,,,0.00,weatherlink.com 1.10,2013-11-16 04:46:00,
2013-11-15 23:01:00,41.2,32.0,29.86,SSE,162,7.0,-999.0,70,-99.99,,,0.00,weatherlink.com 1.10,2013-11-16 05:01:00,
2013-11-15 23:16:00,40.9,32.0,29.86,SSE,161,3.0,-999.0,70,-99.99,,,0.00,weatherlink.com 1.10,2013-11-16 05:16:00,
2013-11-15 23:31:00,40.5,32.0,29.86,SSE,157,4.0,-999.0,71,-99.99,,,0.00,weatherlink.com 1.10,2013-11-16 05:31:00,
2013-11-15 23:46:00,40.1,32.0,29.86,SSE,155,5.0,-999.0,72,-99.99,,,0.00,weatherlink.com 1.10,2013-11-16 05:46:00,